createdAt,value
2023-05-18T00:00:31.095Z,70.70
2023-05-18T00:02:59.299Z,60.70
2023-05-18T00:05:34.403Z,65.60
2023-05-18T00:08:02.993Z,68.80
2023-05-18T00:10:31.244Z,71.60
2023-05-18T00:12:59.440Z,74.20
2023-05-18T00:15:27.877Z,74.00
2023-05-18T00:17:57.113Z,72.80
2023-05-18T00:20:26.592Z,71.20
2023-05-18T00:22:56.197Z,71.40
2023-05-18T00:25:24.575Z,68.80
2023-05-18T00:27:52.976Z,68.80
2023-05-18T00:30:21.499Z,71.20
2023-05-18T00:32:49.693Z,66.70
2023-05-18T00:35:17.893Z,71.40
2023-05-18T00:37:46.073Z,75.90
2023-05-18T00:40:15.748Z,71.60
2023-05-18T00:42:43.920Z,72.80
2023-05-18T00:45:12.537Z,77.10
2023-05-18T00:47:40.738Z,75.30
2023-05-18T00:50:09.709Z,69.50
2023-05-18T00:52:38.523Z,74.90
2023-05-18T00:55:08.277Z,79.00
2023-05-18T00:57:38.343Z,75.80
2023-05-18T01:00:10.773Z,81.10
2023-05-18T01:02:42.679Z,77.80
2023-05-18T01:05:12.282Z,77.80
2023-05-18T01:07:42.519Z,77.80
2023-05-18T01:10:12.912Z,77.90
2023-05-18T01:12:49.326Z,81.00
2023-05-18T01:15:19.810Z,75.70
2023-05-18T01:18:00.798Z,74.20
2023-05-18T01:20:37.869Z,71.20
2023-05-18T01:23:46.861Z,68.60
2023-05-18T01:26:17.940Z,77.90
2023-05-18T01:28:47.530Z,72.60
2023-05-18T01:31:16.457Z,69.20
2023-05-18T01:33:45.015Z,72.60
2023-05-18T01:36:13.396Z,75.30
2023-05-18T01:38:44.167Z,70.10
2023-05-18T01:41:21.393Z,73.00
2023-05-18T01:43:56.101Z,73.30
2023-05-18T01:46:36.042Z,75.00
2023-05-18T01:49:09.449Z,73.10
2023-05-18T01:51:43.370Z,73.20
2023-05-18T01:54:12.647Z,77.10
2023-05-18T01:56:43.516Z,74.90
2023-05-18T01:59:12.093Z,73.60
2023-05-18T02:01:40.339Z,72.00
2023-05-18T02:04:10.531Z,75.10
2023-05-18T02:06:39.187Z,76.20
2023-05-18T02:09:07.763Z,81.00
2023-05-18T02:11:35.966Z,76.80
2023-05-18T02:14:05.528Z,81.40
2023-05-18T02:16:33.771Z,77.80
2023-05-18T02:19:02.013Z,72.20
2023-05-18T02:21:30.535Z,78.70
2023-05-18T02:23:58.872Z,73.70
2023-05-18T02:26:27.426Z,77.60
2023-05-18T02:28:55.636Z,77.10
2023-05-18T02:31:25.253Z,86.00
2023-05-18T02:33:54.173Z,82.60
2023-05-18T02:36:22.617Z,86.40
2023-05-18T02:38:50.793Z,87.60
2023-05-18T02:41:18.961Z,80.80
2023-05-18T02:43:47.114Z,85.80
2023-05-18T02:46:15.360Z,87.60
2023-05-18T02:48:45.760Z,87.10
2023-05-18T02:51:14.041Z,86.00
2023-05-18T02:53:44.238Z,87.80
2023-05-18T02:56:13.352Z,89.40
2023-05-18T02:58:43.679Z,85.60
2023-05-18T03:01:13.321Z,74.60
2023-05-18T03:03:43.366Z,84.90
2023-05-18T03:06:14.015Z,89.00
2023-05-18T03:08:54.681Z,87.20
2023-05-18T03:11:23.101Z,90.90
2023-05-18T03:13:51.465Z,88.60
2023-05-18T03:16:19.771Z,90.30
2023-05-18T03:18:47.938Z,91.40
2023-05-18T03:21:17.515Z,90.60
2023-05-18T03:23:45.698Z,88.60
2023-05-18T03:26:13.880Z,90.00
2023-05-18T03:28:42.025Z,91.60
2023-05-18T03:31:10.277Z,90.60
2023-05-18T03:33:38.449Z,91.30
2023-05-18T03:36:07.170Z,90.70
2023-05-18T03:38:36.716Z,91.00
2023-05-18T03:41:05.007Z,91.10
2023-05-18T03:43:33.239Z,91.00
2023-05-18T03:46:01.407Z,90.00
2023-05-18T03:48:29.556Z,84.20
2023-05-18T03:50:57.873Z,87.40
2023-05-18T03:53:26.291Z,91.10
2023-05-18T03:55:56.931Z,90.90
2023-05-18T03:58:25.089Z,90.20
2023-05-18T04:00:53.310Z,88.90
2023-05-18T04:03:21.714Z,90.20
2023-05-18T04:05:50.008Z,90.00
2023-05-18T04:08:18.427Z,90.30
2023-05-18T04:10:46.873Z,85.10
2023-05-18T04:13:16.393Z,83.90
2023-05-18T04:15:44.617Z,86.20
2023-05-18T04:18:14.271Z,87.30
2023-05-18T04:20:46.034Z,83.60
2023-05-18T04:23:14.310Z,80.00
2023-05-18T04:25:42.561Z,85.40
2023-05-18T04:28:10.981Z,87.80
2023-05-18T04:30:40.509Z,86.10
2023-05-18T04:33:08.879Z,84.20
2023-05-18T04:35:37.529Z,87.50
2023-05-18T04:38:05.980Z,86.60
2023-05-18T04:40:34.496Z,86.40
2023-05-18T04:43:03.477Z,89.00
2023-05-18T04:45:32.073Z,90.00
2023-05-18T04:48:02.955Z,87.30
2023-05-18T04:50:31.123Z,85.80
2023-05-18T04:53:02.076Z,85.80
2023-05-18T04:55:31.348Z,87.00
2023-05-18T04:58:00.553Z,85.50
2023-05-18T05:00:30.302Z,84.20
2023-05-18T05:02:59.944Z,86.10
2023-05-18T05:05:30.793Z,82.30
2023-05-18T05:07:59.471Z,84.40
2023-05-18T05:10:29.149Z,78.10
2023-05-18T05:12:57.324Z,83.00
2023-05-18T05:15:25.677Z,84.10
2023-05-18T05:17:53.856Z,85.50
2023-05-18T05:20:22.233Z,80.90
2023-05-18T05:22:51.923Z,84.40
2023-05-18T05:25:20.118Z,85.20
2023-05-18T05:27:48.271Z,84.30
2023-05-18T05:30:16.442Z,78.40
2023-05-18T05:32:44.620Z,82.10
2023-05-18T05:35:12.830Z,78.90
2023-05-18T05:37:40.997Z,85.20
2023-05-18T05:40:11.811Z,75.70
2023-05-18T05:42:39.998Z,79.00
2023-05-18T05:45:09.377Z,83.70
2023-05-18T05:47:37.615Z,77.40
2023-05-18T05:50:06.537Z,77.10
2023-05-18T05:52:34.701Z,77.20
2023-05-18T05:55:02.838Z,82.20
2023-05-18T05:57:32.379Z,78.60
2023-05-18T06:00:00.525Z,73.30
2023-05-18T06:02:28.802Z,77.00
2023-05-18T06:04:57.048Z,71.70
2023-05-18T06:07:25.244Z,67.20
2023-05-18T06:09:53.403Z,65.70
2023-05-18T06:12:21.577Z,66.40
2023-05-18T06:14:52.871Z,69.30
2023-05-18T06:17:21.092Z,69.60
2023-05-18T06:19:49.234Z,68.50
2023-05-18T06:22:17.372Z,71.60
2023-05-18T06:24:46.231Z,67.90
2023-05-18T06:27:14.380Z,64.20
2023-05-18T06:29:42.510Z,64.40
2023-05-18T06:32:12.948Z,62.40
2023-05-18T06:34:41.220Z,65.90
2023-05-18T06:37:09.407Z,62.30
2023-05-18T06:39:37.583Z,64.80
2023-05-18T06:42:06.215Z,61.80
2023-05-18T06:44:35.280Z,63.60
2023-05-18T06:47:03.471Z,64.60
2023-05-18T06:49:32.996Z,59.30
2023-05-18T06:52:01.136Z,66.10
2023-05-18T06:54:29.514Z,68.60
2023-05-18T06:56:57.771Z,63.40
2023-05-18T06:59:26.002Z,64.20
2023-05-18T07:01:54.276Z,62.30
2023-05-18T07:04:22.760Z,64.00
2023-05-18T07:06:53.687Z,62.90
2023-05-18T07:09:22.438Z,60.50
2023-05-18T07:11:50.594Z,64.20
2023-05-18T07:14:18.759Z,72.10
2023-05-18T07:16:47.536Z,69.00
2023-05-18T07:19:15.897Z,64.20
2023-05-18T07:21:44.151Z,66.70
2023-05-18T07:24:13.673Z,64.30
2023-05-18T07:26:41.828Z,63.10
2023-05-18T07:29:10.001Z,60.90
2023-05-18T07:31:40.578Z,59.60
2023-05-18T07:34:08.787Z,62.20
2023-05-18T07:36:36.949Z,64.60
2023-05-18T07:39:05.535Z,64.40
2023-05-18T07:41:35.120Z,60.50
2023-05-18T07:44:03.285Z,65.30
2023-05-18T07:46:31.576Z,65.80
2023-05-18T07:49:00.664Z,60.50
2023-05-18T07:51:29.771Z,60.40
2023-05-18T07:53:57.917Z,65.20
2023-05-18T07:56:26.318Z,63.20
2023-05-18T07:58:55.923Z,67.80
2023-05-18T08:01:27.479Z,61.10
2023-05-18T08:03:55.723Z,65.20
2023-05-18T08:06:24.056Z,64.60
2023-05-18T08:08:52.279Z,64.30
2023-05-18T08:11:21.866Z,63.70
2023-05-18T08:13:50.171Z,67.10
2023-05-18T08:16:19.763Z,68.60
2023-05-18T08:18:48.017Z,63.80
2023-05-18T08:21:16.686Z,67.40
2023-05-18T08:23:44.942Z,65.40
2023-05-18T08:26:14.167Z,62.20
2023-05-18T08:28:42.564Z,67.60
2023-05-18T08:31:12.412Z,67.40
2023-05-18T08:33:42.125Z,73.30
2023-05-18T08:36:11.145Z,65.40
2023-05-18T08:38:39.367Z,67.20
2023-05-18T08:41:16.329Z,68.80
2023-05-18T08:43:49.894Z,67.90
2023-05-18T08:46:25.793Z,73.10
2023-05-18T08:48:57.417Z,66.00
2023-05-18T08:51:28.253Z,67.70
2023-05-18T08:53:56.863Z,65.40
2023-05-18T08:56:26.609Z,70.20
2023-05-18T08:58:57.334Z,68.80
2023-05-18T09:01:29.243Z,65.70
2023-05-18T09:04:01.785Z,68.30
2023-05-18T09:06:30.052Z,64.90
2023-05-18T09:08:58.843Z,66.40
2023-05-18T09:11:28.311Z,70.60
2023-05-18T09:13:56.692Z,72.00
2023-05-18T09:16:24.996Z,66.60
2023-05-18T09:18:53.763Z,63.40
2023-05-18T09:21:23.405Z,68.20
2023-05-18T09:23:51.928Z,68.90
2023-05-18T09:26:21.754Z,66.10
2023-05-18T09:28:53.931Z,62.50
2023-05-18T09:31:24.601Z,66.20
2023-05-18T09:33:53.782Z,63.50
2023-05-18T09:36:29.229Z,61.90
2023-05-18T09:38:58.650Z,63.30
2023-05-18T09:41:28.063Z,64.70
2023-05-18T09:43:56.338Z,67.00
2023-05-18T09:46:25.814Z,63.20
2023-05-18T09:48:55.378Z,66.70
2023-05-18T09:51:25.534Z,62.00
2023-05-18T09:53:57.091Z,63.60
2023-05-18T09:56:27.036Z,60.40
2023-05-18T09:58:55.618Z,66.20
2023-05-18T10:01:24.277Z,68.30
2023-05-18T10:03:53.430Z,65.80
2023-05-18T10:06:27.589Z,64.70
2023-05-18T10:08:58.947Z,63.50
2023-05-18T10:11:27.679Z,62.90
2023-05-18T10:13:57.028Z,60.00
2023-05-18T10:16:25.700Z,59.80
2023-05-18T10:18:56.159Z,62.60
2023-05-18T10:21:28.350Z,59.70
2023-05-18T10:23:59.060Z,63.10
2023-05-18T10:26:29.600Z,62.30
2023-05-18T10:29:00.147Z,66.60
2023-05-18T10:31:31.392Z,64.90
2023-05-18T10:34:01.216Z,65.40
2023-05-18T10:36:32.787Z,65.50
2023-05-18T10:39:04.004Z,60.00
2023-05-18T10:41:33.355Z,59.30
2023-05-18T10:44:04.132Z,60.40
2023-05-18T10:46:33.317Z,66.50
2023-05-18T10:49:05.066Z,64.80
2023-05-18T10:51:33.578Z,63.70
2023-05-18T10:54:13.325Z,65.30
2023-05-18T10:56:44.880Z,65.20
2023-05-18T10:59:15.064Z,63.00
2023-05-18T11:01:44.716Z,64.70
2023-05-18T11:04:13.392Z,71.40
2023-05-18T11:06:41.724Z,66.10
2023-05-18T11:09:24.789Z,67.30
2023-05-18T11:11:54.103Z,65.30
2023-05-18T11:14:31.480Z,66.50
2023-05-18T11:17:20.194Z,67.70
2023-05-18T11:20:17.365Z,62.00
2023-05-18T11:22:51.406Z,67.60
2023-05-18T11:25:41.587Z,67.70
2023-05-18T11:28:11.567Z,67.60
2023-05-18T11:30:51.816Z,69.50
2023-05-18T11:33:24.792Z,67.40
2023-05-18T11:36:02.288Z,66.60
2023-05-18T11:38:52.292Z,65.20
2023-05-18T11:41:39.285Z,62.80
2023-05-18T11:44:18.235Z,63.40
2023-05-18T11:46:54.768Z,61.90
2023-05-18T11:49:26.162Z,67.60
2023-05-18T11:52:02.216Z,64.70
2023-05-18T11:54:34.861Z,67.40
2023-05-18T11:57:04.671Z,63.20
2023-05-18T11:59:34.462Z,66.60
2023-05-18T12:02:04.198Z,67.60
2023-05-18T12:04:33.745Z,66.20
2023-05-18T12:07:06.650Z,66.80
2023-05-18T12:09:35.188Z,69.60
2023-05-18T12:12:05.069Z,68.80
2023-05-18T12:14:36.051Z,67.40
2023-05-18T12:17:05.137Z,72.00
2023-05-18T12:19:39.341Z,69.80
2023-05-18T12:22:10.186Z,70.80
2023-05-18T12:24:39.599Z,69.20
2023-05-18T12:27:10.640Z,67.00
2023-05-18T12:29:40.288Z,66.10
2023-05-18T12:32:10.287Z,66.40
2023-05-18T12:34:40.077Z,66.30
2023-05-18T12:37:08.917Z,64.30
2023-05-18T12:39:37.794Z,62.10
2023-05-18T12:42:15.539Z,66.90
2023-05-18T12:44:45.726Z,65.60
2023-05-18T12:47:14.466Z,68.30
2023-05-18T12:49:44.681Z,66.60
2023-05-18T12:52:14.242Z,64.60
2023-05-18T12:54:55.608Z,67.00
2023-05-18T12:57:30.552Z,69.10
2023-05-18T12:59:59.382Z,70.20
2023-05-18T13:02:36.160Z,64.90
2023-05-18T13:05:09.706Z,66.50
2023-05-18T13:07:40.056Z,67.90
2023-05-18T13:10:10.458Z,68.10
2023-05-18T13:12:46.215Z,67.30
2023-05-18T13:15:16.552Z,66.80
2023-05-18T13:18:07.009Z,68.90
2023-05-18T13:20:37.710Z,64.70
2023-05-18T13:23:08.144Z,69.70
2023-05-18T13:25:36.384Z,64.70
2023-05-18T13:28:06.544Z,70.30
2023-05-18T13:30:36.272Z,71.30
2023-05-18T13:33:04.790Z,66.00
2023-05-18T13:35:33.262Z,66.60
2023-05-18T13:38:01.774Z,66.80
2023-05-18T13:40:30.091Z,67.60
2023-05-18T13:42:58.270Z,67.50
2023-05-18T13:45:27.904Z,65.60
2023-05-18T13:47:56.918Z,64.70
2023-05-18T13:50:26.270Z,66.40
2023-05-18T13:52:55.113Z,65.00
2023-05-18T13:55:23.678Z,67.00
2023-05-18T13:57:51.883Z,66.40
2023-05-18T14:00:21.513Z,69.80
2023-05-18T14:02:51.349Z,67.20
2023-05-18T14:05:19.644Z,63.30
2023-05-18T14:07:47.833Z,65.30
2023-05-18T14:10:16.036Z,67.50
2023-05-18T14:12:44.225Z,67.30
2023-05-18T14:15:14.042Z,67.50
2023-05-18T14:17:43.177Z,68.00
2023-05-18T14:20:14.163Z,67.00
2023-05-18T14:22:42.592Z,65.40
2023-05-18T14:25:11.218Z,68.50
2023-05-18T14:27:39.469Z,68.40
2023-05-18T14:30:08.951Z,67.60
2023-05-18T14:32:37.340Z,70.20
2023-05-18T14:35:06.244Z,72.40
2023-05-18T14:37:35.840Z,69.50
2023-05-18T14:40:05.912Z,69.60
2023-05-18T14:42:36.466Z,67.40
2023-05-18T14:45:05.511Z,70.90
2023-05-18T14:47:33.768Z,72.00
2023-05-18T14:50:01.931Z,73.10
2023-05-18T14:52:30.114Z,71.80
2023-05-18T14:54:59.685Z,70.20
2023-05-18T14:57:27.966Z,69.10
2023-05-18T14:59:56.299Z,67.50
2023-05-18T15:02:24.619Z,70.30
2023-05-18T15:04:52.934Z,65.80
2023-05-18T15:07:21.214Z,65.80
2023-05-18T15:09:49.413Z,67.20
2023-05-18T15:12:19.746Z,70.30
2023-05-18T15:14:47.965Z,69.00
2023-05-18T15:17:17.950Z,67.60
2023-05-18T15:19:47.125Z,67.80
2023-05-18T15:22:15.326Z,71.80
2023-05-18T15:24:43.748Z,70.40
2023-05-18T15:27:12.192Z,74.70
2023-05-18T15:29:41.828Z,72.10
2023-05-18T15:32:10.051Z,70.60
2023-05-18T15:34:38.287Z,73.10
2023-05-18T15:37:06.675Z,72.70
2023-05-18T15:39:35.137Z,75.20
2023-05-18T15:42:04.849Z,70.90
2023-05-18T15:44:33.032Z,75.50
2023-05-18T15:47:02.984Z,72.60
2023-05-18T15:49:31.173Z,73.40
2023-05-18T15:51:59.383Z,72.80
2023-05-18T15:54:27.635Z,70.50
2023-05-18T15:56:55.827Z,72.70
2023-05-18T15:59:24.208Z,69.60
2023-05-18T16:01:52.478Z,72.90
2023-05-18T16:04:22.150Z,72.20
2023-05-18T16:06:50.333Z,72.40
2023-05-18T16:09:18.685Z,70.20
2023-05-18T16:11:46.845Z,71.80
2023-05-18T16:14:15.010Z,73.90
2023-05-18T16:16:43.297Z,71.20
2023-05-18T16:19:11.551Z,69.30
2023-05-18T16:21:41.147Z,74.50
2023-05-18T16:24:09.778Z,73.20
2023-05-18T16:26:40.055Z,72.90
2023-05-18T16:29:09.051Z,73.30
2023-05-18T16:31:37.804Z,74.80
2023-05-18T16:34:05.993Z,70.60
2023-05-18T16:36:34.501Z,74.50
2023-05-18T16:39:04.125Z,75.40
2023-05-18T16:41:32.316Z,74.00
2023-05-18T16:44:00.492Z,75.50
2023-05-18T16:46:29.208Z,72.20
2023-05-18T16:48:57.508Z,74.70
2023-05-18T16:51:27.295Z,75.80
2023-05-18T16:53:55.861Z,76.60
2023-05-18T16:56:25.605Z,75.70
2023-05-18T16:58:53.929Z,76.40
2023-05-18T17:01:28.061Z,78.20
2023-05-18T17:03:57.278Z,75.60
2023-05-18T17:06:25.986Z,78.10
2023-05-18T17:08:57.943Z,77.60
2023-05-18T17:11:28.298Z,76.80
2023-05-18T17:13:57.837Z,78.70
2023-05-18T17:16:27.212Z,79.40
2023-05-18T17:18:56.311Z,79.20
2023-05-18T17:21:26.707Z,81.10
2023-05-18T17:23:54.977Z,80.00
2023-05-18T17:26:25.425Z,80.80
2023-05-18T17:28:55.064Z,80.40
2023-05-18T17:31:23.513Z,83.00
2023-05-18T17:33:51.796Z,79.10
2023-05-18T17:36:20.015Z,81.40
2023-05-18T17:38:48.234Z,77.50
2023-05-18T17:41:16.419Z,80.60
2023-05-18T17:43:44.623Z,77.60
2023-05-18T17:46:14.219Z,79.50
2023-05-18T17:48:42.418Z,81.20
2023-05-18T17:51:10.659Z,79.00
2023-05-18T17:53:42.101Z,79.70
2023-05-18T17:56:11.260Z,78.90
2023-05-18T17:58:39.647Z,81.20
2023-05-18T18:01:08.814Z,79.50
2023-05-18T18:03:38.531Z,81.50
2023-05-18T18:06:07.564Z,80.20
2023-05-18T18:08:36.717Z,84.00
2023-05-18T18:11:07.621Z,81.60
2023-05-18T18:13:37.645Z,82.00
2023-05-18T18:16:06.543Z,79.30
2023-05-18T18:18:36.579Z,85.00
2023-05-18T18:21:07.421Z,84.20
2023-05-18T18:23:35.753Z,82.10
2023-05-18T18:26:04.624Z,82.50
2023-05-18T18:28:33.411Z,81.20
2023-05-18T18:31:02.226Z,81.70
2023-05-18T18:33:30.590Z,80.20
2023-05-18T18:35:59.177Z,83.20
2023-05-18T18:38:29.062Z,79.30
2023-05-18T18:41:01.576Z,80.40
2023-05-18T18:43:30.148Z,78.70
2023-05-18T18:45:58.438Z,79.10
2023-05-18T18:48:27.788Z,80.30
2023-05-18T18:50:56.172Z,80.70
2023-05-18T18:53:24.377Z,78.70
2023-05-18T18:55:54.290Z,78.40
2023-05-18T18:58:24.232Z,80.40
2023-05-18T19:00:52.559Z,79.50
2023-05-18T19:03:21.866Z,79.20
2023-05-18T19:05:51.216Z,81.10
2023-05-18T19:08:19.902Z,83.40
2023-05-18T19:10:48.095Z,82.10
2023-05-18T19:13:21.075Z,80.70
2023-05-18T19:15:49.427Z,81.70
2023-05-18T19:18:17.755Z,81.20
2023-05-18T19:20:46.030Z,78.50
2023-05-18T19:23:14.390Z,79.00
2023-05-18T19:25:42.784Z,81.30
2023-05-18T19:28:11.042Z,79.40
2023-05-18T19:30:40.684Z,80.20
2023-05-18T19:33:09.214Z,76.60
2023-05-18T19:35:37.445Z,84.50
2023-05-18T19:38:05.640Z,84.80
2023-05-18T19:40:33.852Z,77.70
2023-05-18T19:43:02.124Z,82.20
2023-05-18T19:45:30.691Z,82.80
2023-05-18T19:48:00.975Z,81.30
2023-05-18T19:50:29.366Z,81.90
2023-05-18T19:52:57.627Z,76.30
2023-05-18T19:55:25.942Z,80.30
2023-05-18T19:57:54.712Z,79.20
2023-05-18T20:00:22.959Z,81.60
2023-05-18T20:02:51.192Z,75.20
2023-05-18T20:05:20.818Z,76.30
2023-05-18T20:07:49.319Z,75.80
2023-05-18T20:10:18.483Z,78.50
2023-05-18T20:12:46.908Z,77.80
2023-05-18T20:15:15.345Z,74.80
2023-05-18T20:17:43.844Z,75.00
2023-05-18T20:20:12.720Z,74.90
2023-05-18T20:22:42.728Z,75.10
2023-05-18T20:25:12.129Z,76.00
2023-05-18T20:27:40.391Z,76.40
2023-05-18T20:30:09.705Z,74.50
2023-05-18T20:32:37.935Z,75.60
2023-05-18T20:35:09.092Z,74.90
2023-05-18T20:37:37.698Z,76.40
2023-05-18T20:40:10.041Z,75.80
2023-05-18T20:42:40.740Z,74.50
2023-05-18T20:45:10.748Z,76.90
2023-05-18T20:47:42.721Z,68.80
2023-05-18T20:50:11.476Z,79.40
2023-05-18T20:52:40.083Z,79.20
2023-05-18T20:55:13.963Z,72.70
2023-05-18T20:57:44.725Z,75.00
2023-05-18T21:00:14.108Z,70.60
2023-05-18T21:02:44.971Z,71.90
2023-05-18T21:05:14.108Z,72.40
2023-05-18T21:07:42.410Z,70.60
2023-05-18T21:10:12.731Z,72.70
2023-05-18T21:12:40.889Z,71.00
2023-05-18T21:15:09.906Z,73.90
2023-05-18T21:17:38.103Z,73.60
2023-05-18T21:20:09.283Z,75.00
2023-05-18T21:22:37.530Z,71.60
2023-05-18T21:25:06.309Z,67.50
2023-05-18T21:27:37.107Z,68.20
2023-05-18T21:30:06.195Z,69.40
2023-05-18T21:32:34.664Z,72.20
2023-05-18T21:35:03.046Z,72.70
2023-05-18T21:37:31.249Z,71.80
2023-05-18T21:39:59.386Z,76.20
2023-05-18T21:42:27.607Z,71.20
2023-05-18T21:44:57.118Z,69.70
2023-05-18T21:47:25.316Z,76.90
2023-05-18T21:49:53.491Z,70.40
2023-05-18T21:52:21.649Z,75.50
2023-05-18T21:54:49.805Z,76.10
2023-05-18T21:57:17.981Z,78.80
2023-05-18T21:59:46.165Z,76.10
2023-05-18T22:02:15.705Z,73.40
2023-05-18T22:04:43.899Z,75.00
2023-05-18T22:07:13.856Z,74.40
2023-05-18T22:09:42.009Z,69.70
2023-05-18T22:12:10.242Z,77.70
2023-05-18T22:14:38.434Z,75.40
2023-05-18T22:17:06.873Z,78.60
2023-05-18T22:19:36.639Z,73.00
2023-05-18T22:22:05.807Z,70.70
2023-05-18T22:24:34.158Z,72.60
2023-05-18T22:27:02.942Z,72.20
2023-05-18T22:29:31.124Z,72.70
2023-05-18T22:31:59.408Z,77.70
2023-05-18T22:34:27.616Z,73.90
2023-05-18T22:36:57.153Z,70.70
2023-05-18T22:39:25.355Z,73.80
2023-05-18T22:41:53.600Z,77.50
2023-05-18T22:44:21.763Z,75.00
2023-05-18T22:46:49.946Z,73.10
2023-05-18T22:49:18.249Z,75.20
2023-05-18T22:51:46.875Z,70.70
2023-05-18T22:54:16.452Z,70.00
2023-05-18T22:56:44.592Z,73.90
2023-05-18T22:59:12.790Z,76.40
2023-05-18T23:01:41.080Z,73.00
2023-05-18T23:04:09.273Z,81.80
2023-05-18T23:06:37.441Z,75.10
2023-05-18T23:09:06.105Z,78.80
2023-05-18T23:11:36.031Z,72.00
2023-05-18T23:14:04.209Z,73.80
2023-05-18T23:16:32.591Z,76.00
2023-05-18T23:19:01.785Z,83.70
2023-05-18T23:21:31.068Z,79.80
2023-05-18T23:23:59.823Z,81.70
2023-05-18T23:26:28.272Z,76.00
2023-05-18T23:28:57.886Z,78.10
2023-05-18T23:31:26.095Z,81.80
2023-05-18T23:33:54.901Z,78.50
2023-05-18T23:36:27.143Z,80.70
2023-05-18T23:38:59.013Z,75.30
2023-05-18T23:41:28.184Z,81.70
2023-05-18T23:43:58.831Z,82.00
2023-05-18T23:46:27.731Z,80.00
2023-05-18T23:48:57.882Z,76.00
2023-05-18T23:51:27.687Z,83.30
2023-05-18T23:53:57.030Z,83.00
2023-05-18T23:56:26.000Z,79.70
2023-05-18T23:58:54.637Z,84.60
